Time;durP1;ratioP1;P1;durP2;ratioP2;P2;SDS_P1;SDS_P2;PMS_P1;PMS_P2;Temp;Humidity;BMP_temperature;BMP_pressure;BME280_temperature;BME280_humidity;BME280_pressure;Samples;Min_cycle;Max_cycle;Signal;HPM_P1;HPM_P2
2024/03/14 00:02:17;;;;;;;12.80;6.50;;;12.40;64.10;;;;;;4994755;28;20441;-72
2024/03/14 00:04:43;;;;;;;10.00;6.10;;;12.30;64.50;;;;;;4994565;28;20477;-72
2024/03/14 00:07:08;;;;;;;11.20;6.70;;;12.20;64.30;;;;;;4994620;28;20889;-71
2024/03/14 00:09:34;;;;;;;10.23;6.50;;;12.20;64.40;;;;;;4994246;28;20397;-71
2024/03/14 00:11:59;;;;;;;10.85;6.57;;;12.30;64.70;;;;;;4977002;28;20516;-73
2024/03/14 00:14:25;;;;;;;12.52;6.70;;;12.20;64.80;;;;;;4994483;28;20394;-72
2024/03/14 00:16:52;;;;;;;10.82;6.32;;;12.20;64.50;;;;;;4994670;28;20378;-72
2024/03/14 00:19:19;;;;;;;12.98;6.10;;;12.30;63.40;;;;;;4995063;28;20481;-72
2024/03/14 00:21:46;;;;;;;10.13;6.40;;;12.30;63.60;;;;;;5008772;28;20390;-71
2024/03/14 00:24:11;;;;;;;12.27;5.85;;;12.30;62.90;;;;;;4994445;28;20461;-71
2024/03/14 00:26:37;;;;;;;10.35;5.90;;;12.20;63.20;;;;;;4995996;28;20484;-72
2024/03/14 00:29:05;;;;;;;9.43;6.68;;;12.20;63.50;;;;;;4996028;28;20390;-72
2024/03/14 00:31:32;;;;;;;12.13;6.50;;;12.30;63.40;;;;;;4997722;28;20425;-72
2024/03/14 00:33:58;;;;;;;8.13;6.38;;;12.20;63.70;;;;;;4994986;28;20383;-72
2024/03/14 00:36:24;;;;;;;10.57;6.83;;;12.20;63.50;;;;;;4976544;28;20393;-71
2024/03/14 00:38:49;;;;;;;11.93;6.47;;;12.20;64.70;;;;;;4993423;28;20439;-72
2024/03/14 00:41:15;;;;;;;8.73;6.30;;;12.20;63.60;;;;;;4976221;28;20398;-73
2024/03/14 00:43:40;;;;;;;12.97;7.20;;;12.10;64.10;;;;;;4994367;28;20503;-71
2024/03/14 00:46:06;;;;;;;10.88;6.85;;;12.00;64.90;;;;;;4994751;28;20401;-71
2024/03/14 00:48:32;;;;;;;8.80;6.25;;;12.00;65.00;;;;;;4994264;28;20390;-71
2024/03/14 00:51:01;;;;;;;9.18;6.07;;;12.00;65.50;;;;;;4994446;28;20390;-72
2024/03/14 00:53:28;;;;;;;11.73;6.20;;;12.00;65.30;;;;;;4994117;28;20397;-72
2024/03/14 00:55:53;;;;;;;12.40;6.43;;;12.00;65.40;;;;;;4994069;28;20391;-71
2024/03/14 00:58:19;;;;;;;13.43;7.13;;;12.00;66.00;;;;;;4993487;28;20490;-71
2024/03/14 01:00:44;;;;;;;15.70;6.90;;;12.00;65.90;;;;;;4993815;28;20808;-71
2024/03/14 01:03:11;;;;;;;10.65;6.75;;;12.00;65.90;;;;;;4994817;28;20393;-71
2024/03/14 01:05:37;;;;;;;12.43;7.10;;;12.10;65.20;;;;;;4997266;28;20750;-73
2024/03/14 01:08:05;;;;;;;9.80;6.47;;;12.10;65.00;;;;;;4981154;28;20408;-71
2024/03/14 01:10:31;;;;;;;11.70;6.73;;;12.10;65.40;;;;;;4980953;28;20483;-72
2024/03/14 01:12:57;;;;;;;10.97;6.97;;;12.00;65.80;;;;;;4996432;28;20410;-72
2024/03/14 01:15:22;;;;;;;11.13;6.83;;;12.20;63.70;;;;;;4997058;28;20398;-71
2024/03/14 01:17:48;;;;;;;13.20;7.40;;;12.10;64.50;;;;;;4995057;28;20375;-71
2024/03/14 01:20:16;;;;;;;9.88;6.40;;;12.00;64.60;;;;;;4995872;28;20430;-74
2024/03/14 01:22:42;;;;;;;10.32;6.70;;;11.90;66.10;;;;;;4994492;28;20445;-72
2024/03/14 01:25:11;;;;;;;22.52;7.53;;;11.80;66.40;;;;;;4993696;28;20394;-72
2024/03/14 01:27:37;;;;;;;9.40;6.70;;;11.80;67.00;;;;;;4992743;28;20467;-71
2024/03/14 01:30:03;;;;;;;10.43;6.65;;;11.70;67.20;;;;;;4993018;28;20398;-71
2024/03/14 01:32:28;;;;;;;12.93;6.55;;;11.60;67.80;;;;;;4975434;28;20407;-72
2024/03/14 01:34:54;;;;;;;11.00;7.30;;;11.60;69.00;;;;;;4975391;28;20754;-72
2024/03/14 01:37:21;;;;;;;11.73;6.25;;;11.60;68.90;;;;;;4975323;28;20389;-71
2024/03/14 01:39:49;;;;;;;10.52;6.63;;;11.60;68.70;;;;;;4992352;28;20433;-72
2024/03/14 01:42:14;;;;;;;12.90;7.20;;;11.60;68.60;;;;;;4993053;28;20391;-72
2024/03/14 01:45:01;;;;;;;12.47;6.50;;;11.60;69.10;;;;;;4993216;28;20394;-72
2024/03/14 01:47:26;;;;;;;10.18;6.88;;;11.40;69.40;;;;;;4992352;28;20850;-72
2024/03/14 01:49:52;;;;;;;12.70;7.30;;;11.40;70.00;;;;;;4992016;28;20429;-72
2024/03/14 01:52:18;;;;;;;9.48;6.60;;;11.30;70.70;;;;;;4992175;28;20770;-72
2024/03/14 01:54:44;;;;;;;9.48;6.88;;;11.30;70.90;;;;;;4992223;28;20382;-71
2024/03/14 01:57:11;;;;;;;9.67;6.90;;;11.20;71.60;;;;;;4974613;28;20397;-71
2024/03/14 01:59:37;;;;;;;9.95;6.63;;;11.20;72.10;;;;;;4991428;28;20389;-71
2024/03/14 02:02:03;;;;;;;12.32;6.80;;;11.10;72.70;;;;;;4991752;28;20391;-71
2024/03/14 02:04:42;;;;;;;13.07;6.97;;;11.20;72.10;;;;;;4992224;28;20398;-71
2024/03/14 02:07:09;;;;;;;10.65;6.72;;;11.10;72.30;;;;;;4974748;28;20426;-72
2024/03/14 02:09:36;;;;;;;10.27;6.40;;;11.00;74.10;;;;;;4991652;28;20405;-72
2024/03/14 02:12:04;;;;;;;9.65;6.10;;;10.90;74.50;;;;;;4991723;28;20415;-73
2024/03/14 02:14:30;;;;;;;11.35;7.15;;;10.80;76.00;;;;;;4974384;28;20426;-73
2024/03/14 02:16:56;;;;;;;10.18;5.80;;;10.70;76.50;;;;;;4992418;28;20418;-73
2024/03/14 02:19:22;;;;;;;9.10;7.00;;;10.60;78.00;;;;;;5010966;22;20456;-74
2024/03/14 02:21:48;;;;;;;8.27;5.90;;;10.50;79.50;;;;;;5028068;28;20392;-76
2024/03/14 02:24:14;;;;;;;12.13;6.72;;;10.50;79.90;;;;;;5027492;28;20385;-75
2024/03/14 02:26:40;;;;;;;11.00;6.40;;;10.40;80.50;;;;;;5031242;28;20388;-75
2024/03/14 02:29:07;;;;;;;9.60;6.60;;;10.40;80.40;;;;;;5031871;28;20439;-75
2024/03/14 02:31:33;;;;;;;9.77;6.70;;;10.30;81.70;;;;;;5030185;28;20431;-74
2024/03/14 02:33:59;;;;;;;9.70;5.80;;;10.20;83.20;;;;;;5021687;28;20392;-80
2024/03/14 02:36:25;;;;;;;13.10;6.50;;;10.10;84.20;;;;;;5018728;28;20393;-79
2024/03/14 02:38:52;;;;;;;10.95;6.63;;;10.00;85.00;;;;;;4998685;28;20389;-79
2024/03/14 02:41:18;;;;;;;9.07;6.45;;;10.00;86.00;;;;;;5017740;28;20388;-77
2024/03/14 02:43:44;;;;;;;10.02;6.28;;;10.00;87.00;;;;;;5016706;28;20752;-79
2024/03/14 02:46:09;;;;;;;13.40;7.28;;;9.90;87.70;;;;;;5017595;28;20467;-79
2024/03/14 02:48:36;;;;;;;10.13;6.40;;;9.90;88.70;;;;;;5016693;28;20796;-79
2024/03/14 02:51:03;;;;;;;11.20;6.50;;;9.90;88.30;;;;;;5000471;28;20392;-79
2024/03/14 02:53:29;;;;;;;9.57;6.07;;;9.80;89.10;;;;;;5018502;28;20388;-80
2024/03/14 02:55:55;;;;;;;14.57;6.57;;;9.70;90.50;;;;;;5016596;28;20388;-79
2024/03/14 02:58:21;;;;;;;10.47;6.23;;;9.70;91.30;;;;;;5017615;28;20381;-77
2024/03/14 03:00:48;;;;;;;10.87;6.50;;;9.70;91.90;;;;;;5018641;28;20393;-78
2024/03/14 03:03:15;;;;;;;10.70;6.80;;;9.70;92.10;;;;;;5000927;28;20919;-80
2024/03/14 03:05:41;;;;;;;15.68;7.10;;;9.70;92.10;;;;;;5015859;28;20384;-78
2024/03/14 03:08:07;;;;;;;10.35;6.80;;;9.70;92.60;;;;;;5017036;28;20396;-79
2024/03/14 03:10:33;;;;;;;13.63;6.75;;;9.70;92.30;;;;;;5018243;28;20688;-78
2024/03/14 03:12:59;;;;;;;11.20;6.38;;;9.70;92.50;;;;;;5021806;28;20401;-79
2024/03/14 03:15:24;;;;;;;11.63;6.90;;;9.60;93.30;;;;;;5026659;28;20391;-79
2024/03/14 03:17:53;;;;;;;10.80;6.47;;;9.60;93.30;;;;;;5023753;28;20388;-79
2024/03/14 03:20:19;;;;;;;12.10;6.72;;;9.60;93.60;;;;;;5023318;28;20887;-77
2024/03/14 03:25:32;;;;;;;10.65;6.55;;;9.50;94.30;;;;;;5021670;28;20412;-77
2024/03/14 03:28:08;;;;;;;12.20;6.65;;;9.50;95.40;;;;;;5021828;28;20539;-79
2024/03/14 03:30:34;;;;;;;10.35;7.00;;;9.50;95.60;;;;;;5021900;28;20400;-78
2024/03/14 03:33:00;;;;;;;11.95;7.35;;;9.50;95.70;;;;;;5020801;28;20409;-77
2024/03/14 03:35:26;;;;;;;10.77;6.30;;;9.50;95.90;;;;;;5021512;28;20756;-78
2024/03/14 03:37:51;;;;;;;10.55;6.80;;;9.50;96.30;;;;;;5023777;28;20397;-77
2024/03/14 03:40:23;;;;;;;11.10;7.70;;;9.50;96.50;;;;;;5025483;28;20393;-78
2024/03/14 03:42:49;;;;;;;13.80;7.68;;;9.50;96.50;;;;;;5028033;28;20423;-78
2024/03/14 03:45:15;;;;;;;14.55;7.30;;;9.60;95.60;;;;;;5024862;28;20403;-79
2024/03/14 03:47:43;;;;;;;10.73;7.50;;;9.60;95.50;;;;;;5027549;28;20388;-76
2024/03/14 03:50:09;;;;;;;11.98;7.10;;;9.60;95.20;;;;;;5026310;28;20384;-78
2024/03/14 03:52:36;;;;;;;12.40;6.20;;;9.60;94.70;;;;;;5033501;28;20455;-79
2024/03/14 03:55:05;;;;;;;12.82;6.78;;;9.60;94.10;;;;;;5021802;28;20438;-79
2024/03/14 03:57:31;;;;;;;8.20;6.15;;;9.60;94.50;;;;;;5021091;28;20438;-78
2024/03/14 03:59:57;;;;;;;9.80;6.30;;;9.60;94.50;;;;;;5018011;28;20893;-79
2024/03/14 04:02:23;;;;;;;11.07;6.10;;;9.60;94.00;;;;;;5019436;28;20401;-79
2024/03/14 04:04:49;;;;;;;11.68;6.20;;;9.60;93.50;;;;;;5018493;28;20389;-79
2024/03/14 04:07:15;;;;;;;10.55;6.38;;;9.60;93.30;;;;;;5021879;28;20475;-77
2024/03/14 04:09:46;;;;;;;10.98;6.68;;;9.50;93.60;;;;;;5020413;28;20402;-79
2024/03/14 04:12:14;;;;;;;9.75;5.90;;;9.50;94.30;;;;;;5022226;28;20463;-78
2024/03/14 04:14:43;;;;;;;13.23;6.40;;;9.50;93.90;;;;;;5020887;28;20875;-78
2024/03/14 04:17:11;;;;;;;10.68;6.80;;;9.50;94.40;;;;;;5003658;28;20405;-78
2024/03/14 04:19:40;;;;;;;10.73;6.53;;;9.40;95.30;;;;;;5021489;28;20385;-78
2024/03/14 04:22:07;;;;;;;12.60;7.23;;;9.30;96.80;;;;;;5005797;28;20396;-77
2024/03/14 04:24:33;;;;;;;10.32;6.80;;;9.30;96.80;;;;;;5023112;28;20393;-79
2024/03/14 04:26:59;;;;;;;16.40;8.10;;;9.30;96.90;;;;;;5024013;28;20397;-78
2024/03/14 04:29:26;;;;;;;13.80;6.97;;;9.30;97.50;;;;;;5020592;28;20476;-78
2024/03/14 04:31:54;;;;;;;12.75;7.70;;;9.30;97.80;;;;;;5021218;28;20412;-81
2024/03/14 04:34:27;;;;;;;9.52;6.55;;;9.40;97.80;;;;;;5019671;28;20421;-77
2024/03/14 04:36:53;;;;;;;8.90;6.50;;;9.40;97.30;;;;;;5018353;28;20377;-78
2024/03/14 04:39:23;;;;;;;11.10;7.35;;;9.40;97.50;;;;;;5020372;28;20396;-79
2024/03/14 04:41:52;;;;;;;10.80;7.00;;;9.40;97.40;;;;;;5018463;28;20395;-77
2024/03/14 04:44:18;;;;;;;10.65;7.20;;;9.40;97.60;;;;;;5018312;28;20887;-79
2024/03/14 04:46:44;;;;;;;13.02;7.75;;;9.30;98.70;;;;;;5019885;28;20880;-79
2024/03/14 04:49:10;;;;;;;12.05;7.10;;;9.30;99.90;;;;;;5018237;28;20424;-78
2024/03/14 04:51:36;;;;;;;11.60;7.60;;;9.20;99.90;;;;;;5002350;28;20393;-79
2024/03/14 04:54:02;;;;;;;11.18;7.70;;;9.20;99.90;;;;;;5002714;28;20898;-79
2024/03/14 04:56:30;;;;;;;12.82;8.02;;;9.20;99.90;;;;;;5019711;28;20385;-79
2024/03/14 04:59:01;;;;;;;13.05;7.97;;;9.10;99.90;;;;;;5017477;28;20758;-79
2024/03/14 05:01:29;;;;;;;10.93;7.93;;;9.00;99.90;;;;;;5017606;28;20385;-79
2024/03/14 05:03:56;;;;;;;14.88;9.15;;;9.00;99.90;;;;;;5018804;28;20385;-77
2024/03/14 05:06:22;;;;;;;20.27;8.13;;;9.10;99.90;;;;;;5019058;28;20414;-79
2024/03/14 05:08:48;;;;;;;14.05;8.55;;;9.00;99.90;;;;;;5017785;28;20385;-78
2024/03/14 05:11:14;;;;;;;12.85;8.52;;;8.90;99.90;;;;;;5017052;28;20400;-77
2024/03/14 05:13:40;;;;;;;14.85;9.30;;;9.00;99.90;;;;;;5017970;28;20804;-79
2024/03/14 05:16:05;;;;;;;19.53;9.20;;;9.00;99.90;;;;;;5002919;28;20385;-78
2024/03/14 05:18:33;;;;;;;18.60;9.80;;;8.90;99.90;;;;;;5019313;28;20381;-77
2024/03/14 05:20:59;;;;;;;14.85;8.85;;;8.90;99.90;;;;;;5018122;28;20389;-78
2024/03/14 05:23:25;;;;;;;13.75;9.48;;;8.90;99.90;;;;;;5018159;28;20667;-77
2024/03/14 05:25:52;;;;;;;16.88;9.88;;;8.80;99.90;;;;;;5017532;28;20484;-79
2024/03/14 05:28:18;;;;;;;19.50;9.45;;;8.80;99.90;;;;;;5018264;28;20804;-80
2024/03/14 05:30:44;;;;;;;16.70;9.90;;;8.80;99.90;;;;;;5019298;28;20389;-79
2024/03/14 05:33:09;;;;;;;16.80;9.93;;;8.80;99.90;;;;;;5021578;28;20482;-77
2024/03/14 05:35:35;;;;;;;20.20;11.25;;;8.80;99.90;;;;;;5031928;28;20412;-76
2024/03/14 05:38:01;;;;;;;15.57;10.57;;;8.80;99.90;;;;;;5033455;28;20392;-77
2024/03/14 05:40:26;;;;;;;16.90;9.38;;;8.80;99.90;;;;;;5029188;28;20392;-78
2024/03/14 05:42:52;;;;;;;20.92;11.15;;;8.80;99.90;;;;;;5009105;28;20412;-77
2024/03/14 05:45:18;;;;;;;15.48;10.13;;;8.70;99.90;;;;;;5017266;28;20430;-81
2024/03/14 05:47:43;;;;;;;17.80;10.00;;;8.70;99.90;;;;;;5022356;28;20823;-77
2024/03/14 05:50:09;;;;;;;22.20;11.93;;;8.70;99.90;;;;;;5015306;28;20471;-77
2024/03/14 05:52:35;;;;;;;21.27;11.87;;;8.70;99.90;;;;;;5013536;28;20408;-76
2024/03/14 05:55:05;;;;;;;19.70;10.88;;;8.70;99.90;;;;;;5018159;28;20394;-76
2024/03/14 05:57:31;;;;;;;18.38;11.40;;;8.70;99.90;;;;;;5037937;28;20474;-77
2024/03/14 05:59:58;;;;;;;14.23;10.55;;;8.70;99.90;;;;;;5040174;28;20406;-77
2024/03/14 06:02:23;;;;;;;16.33;10.70;;;8.70;99.90;;;;;;5001569;28;20409;-77
2024/03/14 06:04:49;;;;;;;19.80;10.30;;;8.60;99.90;;;;;;5017147;28;20389;-76
2024/03/14 06:07:15;;;;;;;18.33;11.07;;;8.60;99.90;;;;;;5004596;28;20404;-77
2024/03/14 06:09:44;;;;;;;22.92;11.85;;;8.40;99.90;;;;;;5021072;28;20447;-76
2024/03/14 06:12:10;;;;;;;15.85;10.30;;;8.40;99.90;;;;;;5020752;28;20412;-76
2024/03/14 06:14:36;;;;;;;17.95;10.75;;;8.40;99.90;;;;;;5019989;28;20392;-74
2024/03/14 06:17:03;;;;;;;16.05;10.63;;;8.40;99.90;;;;;;5020908;28;20768;-75
2024/03/14 06:19:28;;;;;;;30.00;12.73;;;8.40;99.90;;;;;;5013899;28;20376;-76
2024/03/14 06:21:56;;;;;;;22.23;12.10;;;8.40;99.90;;;;;;5008117;28;20479;-78
2024/03/14 06:24:22;;;;;;;17.98;11.90;;;8.40;99.90;;;;;;4995370;28;20390;-77
2024/03/14 06:26:48;;;;;;;18.25;11.10;;;8.40;99.90;;;;;;4998819;28;20810;-76
2024/03/14 06:29:14;;;;;;;19.33;11.70;;;8.50;99.90;;;;;;5008810;28;20622;-78
2024/03/14 06:31:41;;;;;;;18.67;11.70;;;8.50;99.90;;;;;;5019636;28;20480;-79
2024/03/14 06:34:08;;;;;;;20.35;11.85;;;8.50;99.90;;;;;;5020419;28;20381;-77
2024/03/14 06:36:35;;;;;;;17.67;11.15;;;8.50;99.90;;;;;;5019933;28;20389;-77
2024/03/14 06:39:06;;;;;;;18.73;11.45;;;8.50;99.90;;;;;;5017039;28;20389;-77
2024/03/14 06:41:32;;;;;;;24.60;12.50;;;8.60;99.90;;;;;;5016004;28;20381;-78
2024/03/14 06:43:57;;;;;;;19.30;11.82;;;8.60;99.90;;;;;;5020257;28;20518;-78
2024/03/14 06:46:26;;;;;;;19.10;11.60;;;8.70;99.90;;;;;;5017562;28;20855;-80
2024/03/14 06:48:57;;;;;;;20.60;12.55;;;8.80;99.90;;;;;;5004123;28;20835;-77
2024/03/14 06:51:23;;;;;;;19.50;11.60;;;9.00;99.90;;;;;;5022488;28;20385;-77
2024/03/14 06:53:48;;;;;;;16.57;11.50;;;9.20;99.90;;;;;;5022585;28;20431;-79
2024/03/14 06:56:15;;;;;;;20.30;12.57;;;9.30;99.90;;;;;;5004269;28;20400;-79
2024/03/14 06:58:40;;;;;;;20.15;12.30;;;9.50;99.90;;;;;;5023597;28;20392;-77
2024/03/14 07:01:08;;;;;;;22.10;11.57;;;9.70;99.90;;;;;;5022181;28;20400;-78
2024/03/14 07:03:33;;;;;;;23.40;10.90;;;9.90;99.90;;;;;;5021364;28;20389;-76
2024/03/14 07:05:59;;;;;;;19.60;10.47;;;10.10;99.90;;;;;;5024338;28;20920;-78
2024/03/14 07:08:27;;;;;;;18.20;10.20;;;10.20;99.90;;;;;;5021455;28;20833;-76
2024/03/14 07:10:53;;;;;;;18.45;11.10;;;10.50;99.90;;;;;;5024866;28;20384;-75
2024/03/14 07:13:19;;;;;;;18.57;10.43;;;10.70;99.90;;;;;;5023223;28;20448;-77
2024/03/14 07:15:46;;;;;;;18.25;10.35;;;10.90;97.00;;;;;;5018714;28;20576;-77
2024/03/14 07:18:16;;;;;;;18.75;9.75;;;11.10;94.90;;;;;;5015706;28;20380;-78
2024/03/14 07:20:44;;;;;;;17.73;9.60;;;11.30;90.90;;;;;;5016214;28;20393;-77
2024/03/14 07:23:15;;;;;;;14.95;9.52;;;11.40;87.10;;;;;;5017211;28;20395;-77
2024/03/14 07:25:41;;;;;;;14.43;9.00;;;11.40;84.30;;;;;;5017933;28;20393;-79
2024/03/14 07:28:09;;;;;;;11.85;8.75;;;11.50;82.30;;;;;;5018430;28;20475;-77
2024/03/14 07:30:35;;;;;;;12.70;8.50;;;11.50;80.50;;;;;;5024304;28;20883;-77
2024/03/14 07:33:00;;;;;;;18.25;9.57;;;11.60;79.40;;;;;;5018159;28;20416;-78
2024/03/14 07:35:26;;;;;;;14.43;8.88;;;11.70;78.80;;;;;;4996461;28;20399;-77
2024/03/14 07:37:52;;;;;;;15.52;9.02;;;11.70;79.40;;;;;;5011324;28;20868;-77
2024/03/14 07:40:18;;;;;;;11.77;9.13;;;11.80;75.30;;;;;;5018085;28;20392;-78
2024/03/14 07:42:44;;;;;;;13.10;8.85;;;11.80;75.40;;;;;;5005134;28;20393;-78
2024/03/14 07:45:16;;;;;;;13.50;8.25;;;12.00;72.30;;;;;;5017305;28;20424;-78
2024/03/14 07:47:48;;;;;;;15.00;8.50;;;12.00;71.70;;;;;;4997833;28;20492;-77
2024/03/14 07:50:16;;;;;;;12.82;8.30;;;12.00;70.10;;;;;;5013457;28;20418;-77
2024/03/14 07:52:44;;;;;;;14.55;8.23;;;12.00;70.20;;;;;;5013766;28;20451;-78
2024/03/14 07:55:10;;;;;;;14.00;8.10;;;12.10;68.10;;;;;;5014425;28;20932;-78
2024/03/14 07:57:38;;;;;;;13.90;8.10;;;12.10;66.70;;;;;;5013621;28;20393;-78
2024/03/14 08:00:15;;;;;;;13.18;8.75;;;12.10;66.90;;;;;;5017227;28;20388;-77
2024/03/14 08:02:42;;;;;;;11.63;8.32;;;12.20;66.90;;;;;;5000806;28;20400;-77
2024/03/14 08:05:08;;;;;;;11.25;7.70;;;12.40;64.30;;;;;;5016472;28;20741;-78
2024/03/14 08:07:34;;;;;;;13.88;8.00;;;12.50;63.70;;;;;;5004061;28;20407;-78
2024/03/14 08:10:00;;;;;;;12.63;8.00;;;12.70;63.20;;;;;;5022067;28;20385;-77
2024/03/14 08:12:32;;;;;;;10.30;7.10;;;12.80;58.70;;;;;;5015448;28;20409;-78
2024/03/14 08:15:16;;;;;;;12.65;6.80;;;12.90;57.30;;;;;;5017819;28;20700;-78
2024/03/14 08:17:45;;;;;;;15.50;7.20;;;13.00;55.50;;;;;;5017583;28;20389;-78
2024/03/14 08:20:15;;;;;;;11.85;7.20;;;13.10;55.60;;;;;;5044514;23;20952;-70
2024/03/14 08:22:42;;;;;;;12.10;7.00;;;13.20;52.50;;;;;;5053145;28;20392;-70
2024/03/14 08:25:15;;;;;;;11.55;6.72;;;13.40;52.30;;;;;;5053231;28;20377;-69
2024/03/14 08:27:41;;;;;;;9.93;6.57;;;13.50;49.40;;;;;;5052592;28;20840;-69
2024/03/14 08:30:10;;;;;;;11.73;7.18;;;13.60;48.80;;;;;;5053049;28;20450;-70
2024/03/14 08:32:36;;;;;;;11.43;6.90;;;13.70;47.80;;;;;;5053194;28;20398;-71
2024/03/14 08:35:03;;;;;;;11.68;6.55;;;14.00;46.60;;;;;;5052756;28;20381;-70
2024/03/14 08:37:30;;;;;;;11.95;6.20;;;14.10;44.30;;;;;;5053273;28;20812;-68
2024/03/14 08:39:55;;;;;;;9.35;6.20;;;14.30;43.40;;;;;;5052622;28;20519;-69
2024/03/14 08:42:31;;;;;;;10.02;6.07;;;14.30;43.80;;;;;;5052532;28;20453;-70
2024/03/14 08:45:00;;;;;;;11.63;6.20;;;14.30;43.80;;;;;;5052456;28;20415;-70
2024/03/14 08:47:27;;;;;;;12.05;6.10;;;14.30;43.20;;;;;;5052534;28;20386;-71
2024/03/14 08:49:53;;;;;;;10.98;6.10;;;14.30;43.20;;;;;;5051960;28;20420;-70
2024/03/14 08:52:21;;;;;;;10.50;6.72;;;14.40;42.60;;;;;;5052279;28;20469;-69
2024/03/14 08:54:47;;;;;;;9.68;6.70;;;14.40;41.60;;;;;;5052077;28;20381;-69
2024/03/14 08:57:13;;;;;;;10.93;6.30;;;14.40;42.60;;;;;;5052238;28;20890;-69
2024/03/14 08:59:39;;;;;;;8.20;5.80;;;14.20;42.20;;;;;;5051792;28;20898;-69
2024/03/14 09:02:08;;;;;;;7.85;6.25;;;14.20;43.00;;;;;;5052153;28;20438;-70
2024/03/14 09:04:35;;;;;;;9.77;5.68;;;14.40;42.10;;;;;;5051191;28;20385;-70
2024/03/14 09:07:01;;;;;;;9.15;5.70;;;14.60;42.10;;;;;;5051766;28;20381;-70
2024/03/14 09:09:35;;;;;;;10.97;6.80;;;14.50;41.50;;;;;;5051884;28;20436;-70
2024/03/14 09:12:13;;;;;;;9.32;6.05;;;14.40;41.70;;;;;;5053759;28;20404;-70
2024/03/14 09:14:41;;;;;;;9.90;5.90;;;14.40;42.40;;;;;;5051889;28;20760;-70
2024/03/14 09:17:07;;;;;;;10.57;6.90;;;14.40;42.40;;;;;;5052003;28;20413;-72
2024/03/14 09:19:33;;;;;;;17.33;7.38;;;14.40;42.40;;;;;;5051925;28;20394;-70
2024/03/14 09:21:58;;;;;;;11.40;7.70;;;14.40;42.40;;;;;;5052950;28;20491;-71
2024/03/14 09:24:24;;;;;;;10.30;7.05;;;14.40;42.40;;;;;;5051683;28;20385;-71
2024/03/14 09:26:49;;;;;;;12.93;7.50;;;14.60;42.70;;;;;;5051669;28;20761;-70
2024/03/14 09:29:15;;;;;;;14.97;7.10;;;14.60;41.80;;;;;;5051086;28;20420;-69
2024/03/14 09:31:44;;;;;;;12.17;7.50;;;14.80;40.70;;;;;;5051466;28;20685;-71
2024/03/14 09:34:11;;;;;;;13.55;7.10;;;14.80;40.30;;;;;;5033809;28;20465;-70
2024/03/14 09:36:37;;;;;;;16.60;8.10;;;14.80;40.80;;;;;;5051474;28;20381;-70
2024/03/14 09:39:13;;;;;;;18.37;8.40;;;14.90;41.20;;;;;;5051474;28;20377;-70
2024/03/14 09:41:41;;;;;;;11.93;8.40;;;15.10;39.70;;;;;;5050992;28;20461;-70
2024/03/14 09:44:07;;;;;;;17.52;8.43;;;15.10;39.70;;;;;;5051419;28;20898;-70
2024/03/14 09:46:34;;;;;;;13.13;8.27;;;15.10;40.20;;;;;;5034075;28;20467;-70
2024/03/14 09:49:01;;;;;;;9.98;7.20;;;15.10;39.80;;;;;;5050951;28;20393;-70
2024/03/14 09:51:27;;;;;;;11.82;7.55;;;15.20;39.30;;;;;;5050613;28;20396;-70
2024/03/14 09:53:54;;;;;;;12.80;8.20;;;15.30;38.70;;;;;;5051134;28;20385;-70
2024/03/14 09:56:20;;;;;;;12.07;7.70;;;15.30;38.10;;;;;;5051075;28;20385;-70
2024/03/14 09:58:46;;;;;;;16.33;6.85;;;15.40;38.40;;;;;;5050939;28;20386;-70
2024/03/14 10:01:12;;;;;;;13.52;6.60;;;15.80;38.10;;;;;;5051317;28;20721;-71
2024/03/14 10:03:41;;;;;;;12.70;6.78;;;16.00;36.60;;;;;;5051216;28;20558;-70
2024/03/14 10:06:20;;;;;;;10.07;6.80;;;16.00;35.90;;;;;;5050852;28;20536;-70
2024/03/14 10:08:50;;;;;;;9.93;6.88;;;16.20;35.70;;;;;;5050601;28;20409;-70
2024/03/14 10:11:18;;;;;;;12.27;6.78;;;16.30;35.00;;;;;;5050980;28;20412;-70
2024/03/14 10:13:47;;;;;;;13.98;6.88;;;16.40;34.90;;;;;;5051067;28;20392;-71
2024/03/14 10:16:14;;;;;;;11.13;6.50;;;16.50;33.70;;;;;;5051097;28;20385;-70
2024/03/14 10:18:41;;;;;;;15.57;7.05;;;16.60;33.20;;;;;;5050983;28;20472;-70
2024/03/14 10:21:07;;;;;;;13.70;7.18;;;16.70;32.30;;;;;;5050113;28;20385;-70
2024/03/14 10:23:35;;;;;;;10.17;6.03;;;16.80;32.60;;;;;;5050544;28;20829;-70
2024/03/14 10:26:01;;;;;;;14.00;6.45;;;16.70;33.00;;;;;;5050819;28;20413;-70
2024/03/14 10:28:34;;;;;;;10.63;5.75;;;16.70;32.60;;;;;;5050515;28;20744;-70
2024/03/14 10:31:04;;;;;;;10.30;5.90;;;16.80;32.70;;;;;;5052694;28;20397;-69
2024/03/14 10:33:30;;;;;;;7.97;5.47;;;16.80;31.30;;;;;;5051057;28;20403;-71
2024/03/14 10:36:01;;;;;;;8.52;5.53;;;16.90;31.20;;;;;;5050389;28;20381;-70
2024/03/14 10:38:28;;;;;;;7.65;5.60;;;17.10;30.70;;;;;;5050412;28;20374;-70
2024/03/14 10:40:58;;;;;;;12.45;6.60;;;17.30;30.10;;;;;;5050352;28;20385;-70
2024/03/14 10:43:37;;;;;;;8.20;5.90;;;17.30;28.60;;;;;;5050802;28;20381;-70
2024/03/14 10:46:08;;;;;;;7.53;5.00;;;17.40;28.60;;;;;;5050521;28;20715;-70
2024/03/14 10:48:38;;;;;;;9.70;5.30;;;17.30;28.50;;;;;;5032233;28;20401;-70
2024/03/14 10:51:06;;;;;;;9.80;4.90;;;17.20;28.60;;;;;;5016133;28;20408;-70
2024/03/14 10:53:35;;;;;;;6.80;4.73;;;17.10;28.70;;;;;;5050135;28;20401;-70
2024/03/14 10:56:04;;;;;;;6.23;4.60;;;17.10;29.30;;;;;;5050384;28;20655;-70
2024/03/14 10:58:32;;;;;;;9.10;5.80;;;17.20;29.10;;;;;;5050635;28;20958;-69
2024/03/14 11:00:59;;;;;;;8.20;6.13;;;17.00;30.00;;;;;;5050285;28;20385;-69
2024/03/14 11:03:25;;;;;;;9.23;6.07;;;17.00;30.30;;;;;;5050143;28;20899;-70
2024/03/14 11:05:56;;;;;;;8.25;5.63;;;17.00;30.90;;;;;;5049831;28;20807;-70
2024/03/14 11:08:26;;;;;;;10.35;5.50;;;16.90;30.40;;;;;;5050750;28;20385;-70
2024/03/14 11:10:55;;;;;;;6.05;4.80;;;16.90;30.00;;;;;;5032061;28;20491;-70
2024/03/14 11:13:30;;;;;;;9.80;5.70;;;16.80;30.00;;;;;;5032818;28;20415;-69
2024/03/14 11:15:59;;;;;;;9.73;5.90;;;16.70;31.10;;;;;;5050155;28;20385;-70
2024/03/14 11:18:37;;;;;;;6.57;5.13;;;16.70;31.00;;;;;;5050169;28;20411;-70
2024/03/14 11:21:06;;;;;;;9.73;6.10;;;16.60;31.10;;;;;;5049729;28;20447;-70
2024/03/14 11:23:34;;;;;;;9.68;5.65;;;16.50;31.40;;;;;;5050049;28;20690;-70
2024/03/14 11:26:12;;;;;;;11.85;5.82;;;16.50;32.10;;;;;;5031369;28;20417;-70
2024/03/14 11:28:39;;;;;;;10.10;6.13;;;16.40;32.40;;;;;;5050288;28;20898;-69
2024/03/14 11:31:06;;;;;;;9.75;6.13;;;16.40;32.10;;;;;;5050006;28;20386;-70
2024/03/14 11:33:32;;;;;;;10.70;6.30;;;16.50;32.30;;;;;;5051186;28;20548;-71
2024/03/14 11:35:58;;;;;;;10.67;6.73;;;16.60;31.90;;;;;;5054560;28;20928;-71
2024/03/14 11:38:28;;;;;;;10.02;6.47;;;16.60;31.80;;;;;;5036281;28;20440;-71
2024/03/14 11:40:55;;;;;;;10.70;7.20;;;16.70;31.40;;;;;;5054183;28;20420;-70
2024/03/14 11:43:25;;;;;;;11.65;7.00;;;16.60;31.80;;;;;;5054634;28;20388;-70
2024/03/14 11:46:02;;;;;;;10.93;7.30;;;16.40;31.90;;;;;;5053939;28;20413;-70
2024/03/14 11:48:29;;;;;;;9.00;6.60;;;16.30;32.20;;;;;;5053854;28;20385;-70
2024/03/14 11:50:58;;;;;;;11.05;7.00;;;16.10;33.30;;;;;;5053383;28;20488;-70
2024/03/14 11:53:25;;;;;;;11.88;6.85;;;16.10;33.30;;;;;;5053364;28;20418;-70
2024/03/14 11:55:52;;;;;;;16.55;7.40;;;16.10;33.50;;;;;;5054015;28;20464;-73
2024/03/14 11:58:20;;;;;;;15.52;7.25;;;16.10;33.50;;;;;;5054723;28;20389;-69
2024/03/14 12:00:47;;;;;;;10.88;6.60;;;16.20;33.80;;;;;;5053524;28;20389;-71
2024/03/14 12:03:17;;;;;;;10.98;6.20;;;16.30;33.00;;;;;;5053675;28;20478;-70
2024/03/14 12:05:55;;;;;;;12.27;6.60;;;16.30;32.60;;;;;;5053842;28;20468;-71
2024/03/14 12:08:22;;;;;;;12.73;6.60;;;16.30;32.10;;;;;;5053523;28;20381;-69
2024/03/14 12:10:52;;;;;;;10.40;5.95;;;16.20;32.60;;;;;;5035212;28;20888;-70
2024/03/14 12:13:23;;;;;;;11.52;7.40;;;16.20;32.40;;;;;;5053031;28;20433;-70
2024/03/14 12:15:59;;;;;;;10.43;6.70;;;16.20;32.80;;;;;;5053305;28;20385;-71
2024/03/14 12:18:25;;;;;;;11.88;6.53;;;16.30;32.40;;;;;;5053748;28;20400;-70
2024/03/14 12:20:53;;;;;;;10.60;6.43;;;16.30;32.90;;;;;;5053498;28;20401;-70
2024/03/14 12:23:22;;;;;;;12.65;6.38;;;16.30;32.10;;;;;;5053277;28;20461;-69
2024/03/14 12:25:50;;;;;;;10.93;6.10;;;16.30;32.20;;;;;;5053334;28;20387;-70
2024/03/14 12:28:16;;;;;;;9.75;5.72;;;16.40;32.50;;;;;;5052897;28;20476;-70
2024/03/14 12:30:43;;;;;;;10.18;5.85;;;16.50;32.70;;;;;;5034073;28;20531;-70
2024/03/14 12:33:11;;;;;;;8.85;5.70;;;16.50;31.90;;;;;;5052882;28;20402;-70
2024/03/14 12:35:38;;;;;;;9.05;4.75;;;16.40;31.70;;;;;;5053551;28;20381;-71
2024/03/14 12:38:03;;;;;;;12.32;5.72;;;16.40;31.90;;;;;;5053880;28;20386;-70
2024/03/14 12:40:31;;;;;;;9.40;5.85;;;16.50;32.10;;;;;;5053533;28;20381;-70
2024/03/14 12:42:57;;;;;;;9.88;5.20;;;16.60;31.90;;;;;;5052632;28;20394;-70
2024/03/14 12:45:23;;;;;;;9.88;5.30;;;16.70;31.60;;;;;;5054158;28;20739;-71